sensor_id;sensor_type;location;lat;lon;timestamp;P1;durP1;ratioP1;P2;durP2;ratioP2
11671;SDS011;5892;43.412;24.612;2023-03-14T00:02:17;6.27;;;4.77;;
11671;SDS011;5892;43.412;24.612;2023-03-14T00:04:53;4.10;;;3.67;;
11671;SDS011;5892;43.412;24.612;2023-03-14T00:07:24;4.00;;;3.37;;
11671;SDS011;5892;43.412;24.612;2023-03-14T00:09:53;3.60;;;3.13;;
11671;SDS011;5892;43.412;24.612;2023-03-14T00:12:41;3.57;;;2.77;;
11671;SDS011;5892;43.412;24.612;2023-03-14T00:15:11;3.30;;;3.00;;
11671;SDS011;5892;43.412;24.612;2023-03-14T00:17:55;3.87;;;3.07;;
11671;SDS011;5892;43.412;24.612;2023-03-14T00:20:45;3.93;;;3.00;;
11671;SDS011;5892;43.412;24.612;2023-03-14T00:23:13;3.77;;;3.03;;
11671;SDS011;5892;43.412;24.612;2023-03-14T00:25:41;5.30;;;3.13;;
11671;SDS011;5892;43.412;24.612;2023-03-14T00:28:08;5.50;;;3.10;;
11671;SDS011;5892;43.412;24.612;2023-03-14T00:30:37;3.97;;;3.30;;
11671;SDS011;5892;43.412;24.612;2023-03-14T00:33:07;4.13;;;3.30;;
11671;SDS011;5892;43.412;24.612;2023-03-14T00:35:39;4.60;;;3.90;;
11671;SDS011;5892;43.412;24.612;2023-03-14T00:38:08;5.50;;;4.10;;
11671;SDS011;5892;43.412;24.612;2023-03-14T00:40:38;6.27;;;4.70;;
11671;SDS011;5892;43.412;24.612;2023-03-14T00:43:06;5.90;;;4.90;;
11671;SDS011;5892;43.412;24.612;2023-03-14T00:45:34;7.13;;;4.90;;
11671;SDS011;5892;43.412;24.612;2023-03-14T00:48:02;7.57;;;5.20;;
11671;SDS011;5892;43.412;24.612;2023-03-14T00:50:32;6.90;;;5.57;;
11671;SDS011;5892;43.412;24.612;2023-03-14T00:53:03;6.43;;;5.17;;
11671;SDS011;5892;43.412;24.612;2023-03-14T00:55:32;7.60;;;5.33;;
11671;SDS011;5892;43.412;24.612;2023-03-14T00:58:03;9.70;;;6.30;;
11671;SDS011;5892;43.412;24.612;2023-03-14T01:00:33;9.50;;;5.63;;
11671;SDS011;5892;43.412;24.612;2023-03-14T01:03:05;12.33;;;7.03;;
11671;SDS011;5892;43.412;24.612;2023-03-14T01:05:34;10.20;;;6.37;;
11671;SDS011;5892;43.412;24.612;2023-03-14T01:08:02;10.80;;;7.00;;
11671;SDS011;5892;43.412;24.612;2023-03-14T01:10:32;11.47;;;7.07;;
11671;SDS011;5892;43.412;24.612;2023-03-14T01:13:04;12.80;;;7.03;;
11671;SDS011;5892;43.412;24.612;2023-03-14T01:15:33;13.37;;;7.07;;
11671;SDS011;5892;43.412;24.612;2023-03-14T01:18:03;12.37;;;7.57;;
11671;SDS011;5892;43.412;24.612;2023-03-14T01:20:32;11.90;;;7.70;;
11671;SDS011;5892;43.412;24.612;2023-03-14T01:23:07;13.17;;;7.63;;
11671;SDS011;5892;43.412;24.612;2023-03-14T01:25:40;12.80;;;7.40;;
11671;SDS011;5892;43.412;24.612;2023-03-14T01:28:08;12.33;;;6.57;;
11671;SDS011;5892;43.412;24.612;2023-03-14T01:30:36;8.97;;;5.87;;
11671;SDS011;5892;43.412;24.612;2023-03-14T01:33:09;7.70;;;5.13;;
11671;SDS011;5892;43.412;24.612;2023-03-14T01:35:41;7.13;;;5.00;;
11671;SDS011;5892;43.412;24.612;2023-03-14T01:38:10;5.80;;;4.80;;
11671;SDS011;5892;43.412;24.612;2023-03-14T01:40:42;7.43;;;4.67;;
11671;SDS011;5892;43.412;24.612;2023-03-14T01:43:14;6.00;;;4.73;;
11671;SDS011;5892;43.412;24.612;2023-03-14T01:48:56;7.53;;;4.93;;
11671;SDS011;5892;43.412;24.612;2023-03-14T01:51:31;5.40;;;3.97;;
11671;SDS011;5892;43.412;24.612;2023-03-14T01:54:06;9.43;;;6.17;;
11671;SDS011;5892;43.412;24.612;2023-03-14T01:56:41;9.07;;;5.63;;
11671;SDS011;5892;43.412;24.612;2023-03-14T01:59:22;8.57;;;5.57;;
11671;SDS011;5892;43.412;24.612;2023-03-14T02:02:30;6.47;;;4.97;;
11671;SDS011;5892;43.412;24.612;2023-03-14T02:05:00;8.27;;;5.20;;
11671;SDS011;5892;43.412;24.612;2023-03-14T02:07:33;9.40;;;4.90;;
11671;SDS011;5892;43.412;24.612;2023-03-14T02:10:08;14.33;;;11.33;;
11671;SDS011;5892;43.412;24.612;2023-03-14T02:12:38;4.73;;;4.03;;
11671;SDS011;5892;43.412;24.612;2023-03-14T02:15:07;5.73;;;4.07;;
11671;SDS011;5892;43.412;24.612;2023-03-14T02:17:35;4.40;;;3.90;;
11671;SDS011;5892;43.412;24.612;2023-03-14T02:20:07;4.00;;;3.60;;
11671;SDS011;5892;43.412;24.612;2023-03-14T02:22:51;3.97;;;3.57;;
11671;SDS011;5892;43.412;24.612;2023-03-14T02:25:21;3.30;;;3.00;;
11671;SDS011;5892;43.412;24.612;2023-03-14T02:27:57;3.70;;;3.00;;
11671;SDS011;5892;43.412;24.612;2023-03-14T02:30:26;3.53;;;3.13;;
11671;SDS011;5892;43.412;24.612;2023-03-14T02:32:57;3.10;;;2.77;;
11671;SDS011;5892;43.412;24.612;2023-03-14T02:35:29;4.87;;;3.40;;
11671;SDS011;5892;43.412;24.612;2023-03-14T02:38:00;4.30;;;3.70;;
11671;SDS011;5892;43.412;24.612;2023-03-14T02:40:35;3.60;;;3.20;;
11671;SDS011;5892;43.412;24.612;2023-03-14T02:43:04;5.43;;;3.37;;
11671;SDS011;5892;43.412;24.612;2023-03-14T02:45:34;4.80;;;3.37;;
11671;SDS011;5892;43.412;24.612;2023-03-14T02:48:10;3.60;;;2.90;;
11671;SDS011;5892;43.412;24.612;2023-03-14T02:50:56;5.10;;;3.20;;
11671;SDS011;5892;43.412;24.612;2023-03-14T02:53:26;3.53;;;3.10;;
11671;SDS011;5892;43.412;24.612;2023-03-14T02:55:56;3.97;;;3.43;;
11671;SDS011;5892;43.412;24.612;2023-03-14T02:58:26;4.87;;;3.27;;
11671;SDS011;5892;43.412;24.612;2023-03-14T03:00:53;5.57;;;3.60;;
11671;SDS011;5892;43.412;24.612;2023-03-14T03:03:21;3.63;;;3.30;;
11671;SDS011;5892;43.412;24.612;2023-03-14T03:05:49;3.83;;;3.17;;
11671;SDS011;5892;43.412;24.612;2023-03-14T03:08:17;3.73;;;3.30;;
11671;SDS011;5892;43.412;24.612;2023-03-14T03:10:47;3.63;;;3.33;;
11671;SDS011;5892;43.412;24.612;2023-03-14T03:13:16;4.67;;;3.97;;
11671;SDS011;5892;43.412;24.612;2023-03-14T03:18:53;5.33;;;4.00;;
11671;SDS011;5892;43.412;24.612;2023-03-14T03:21:22;4.33;;;3.77;;
11671;SDS011;5892;43.412;24.612;2023-03-14T03:24:07;5.13;;;4.37;;
11671;SDS011;5892;43.412;24.612;2023-03-14T03:26:36;6.10;;;3.83;;
11671;SDS011;5892;43.412;24.612;2023-03-14T03:29:03;4.40;;;3.47;;
11671;SDS011;5892;43.412;24.612;2023-03-14T03:34:28;7.70;;;4.50;;
11671;SDS011;5892;43.412;24.612;2023-03-14T03:36:56;4.00;;;3.60;;
11671;SDS011;5892;43.412;24.612;2023-03-14T03:39:38;5.60;;;3.80;;
11671;SDS011;5892;43.412;24.612;2023-03-14T03:42:06;8.47;;;4.00;;
11671;SDS011;5892;43.412;24.612;2023-03-14T03:44:36;10.67;;;3.83;;
11671;SDS011;5892;43.412;24.612;2023-03-14T03:47:17;5.13;;;3.80;;
11671;SDS011;5892;43.412;24.612;2023-03-14T03:49:45;7.07;;;4.20;;
11671;SDS011;5892;43.412;24.612;2023-03-14T03:52:13;5.17;;;3.90;;
11671;SDS011;5892;43.412;24.612;2023-03-14T03:54:43;5.37;;;3.50;;
11671;SDS011;5892;43.412;24.612;2023-03-14T03:57:12;4.70;;;3.67;;
11671;SDS011;5892;43.412;24.612;2023-03-14T03:59:41;5.70;;;3.50;;
11671;SDS011;5892;43.412;24.612;2023-03-14T04:02:09;5.37;;;3.60;;
11671;SDS011;5892;43.412;24.612;2023-03-14T04:04:43;7.83;;;3.70;;
11671;SDS011;5892;43.412;24.612;2023-03-14T04:07:11;3.73;;;3.37;;
11671;SDS011;5892;43.412;24.612;2023-03-14T04:09:43;4.10;;;3.70;;
11671;SDS011;5892;43.412;24.612;2023-03-14T04:12:15;4.43;;;3.60;;
11671;SDS011;5892;43.412;24.612;2023-03-14T04:14:45;4.20;;;3.20;;
11671;SDS011;5892;43.412;24.612;2023-03-14T04:17:21;4.97;;;3.57;;
11671;SDS011;5892;43.412;24.612;2023-03-14T04:19:52;4.17;;;3.37;;
11671;SDS011;5892;43.412;24.612;2023-03-14T04:22:21;4.20;;;3.70;;
11671;SDS011;5892;43.412;24.612;2023-03-14T04:24:49;4.33;;;3.43;;
11671;SDS011;5892;43.412;24.612;2023-03-14T04:27:21;6.27;;;3.73;;
11671;SDS011;5892;43.412;24.612;2023-03-14T04:29:51;4.23;;;3.57;;
11671;SDS011;5892;43.412;24.612;2023-03-14T04:32:26;10.50;;;4.37;;
11671;SDS011;5892;43.412;24.612;2023-03-14T04:38:23;6.07;;;4.60;;
11671;SDS011;5892;43.412;24.612;2023-03-14T04:41:01;6.03;;;4.13;;
11671;SDS011;5892;43.412;24.612;2023-03-14T04:43:35;9.10;;;4.57;;
11671;SDS011;5892;43.412;24.612;2023-03-14T04:46:12;6.87;;;3.97;;
11671;SDS011;5892;43.412;24.612;2023-03-14T04:48:40;6.23;;;4.50;;
11671;SDS011;5892;43.412;24.612;2023-03-14T04:51:08;6.70;;;4.60;;
11671;SDS011;5892;43.412;24.612;2023-03-14T04:53:37;9.03;;;5.00;;
11671;SDS011;5892;43.412;24.612;2023-03-14T04:56:07;8.67;;;5.30;;
11671;SDS011;5892;43.412;24.612;2023-03-14T04:58:40;8.17;;;4.90;;
11671;SDS011;5892;43.412;24.612;2023-03-14T05:01:26;9.30;;;4.60;;
11671;SDS011;5892;43.412;24.612;2023-03-14T05:03:55;8.77;;;5.20;;
11671;SDS011;5892;43.412;24.612;2023-03-14T05:06:30;12.47;;;4.23;;
11671;SDS011;5892;43.412;24.612;2023-03-14T05:09:12;4.83;;;3.97;;
11671;SDS011;5892;43.412;24.612;2023-03-14T05:11:44;9.90;;;6.90;;
11671;SDS011;5892;43.412;24.612;2023-03-14T05:14:12;33.10;;;16.03;;
11671;SDS011;5892;43.412;24.612;2023-03-14T05:16:42;19.33;;;11.00;;
11671;SDS011;5892;43.412;24.612;2023-03-14T05:19:09;9.53;;;6.50;;
11671;SDS011;5892;43.412;24.612;2023-03-14T05:21:37;6.73;;;4.20;;
11671;SDS011;5892;43.412;24.612;2023-03-14T05:24:15;26.03;;;13.33;;
11671;SDS011;5892;43.412;24.612;2023-03-14T05:27:02;11.97;;;6.53;;
11671;SDS011;5892;43.412;24.612;2023-03-14T05:29:30;12.40;;;5.40;;
11671;SDS011;5892;43.412;24.612;2023-03-14T05:31:59;11.57;;;5.70;;
11671;SDS011;5892;43.412;24.612;2023-03-14T05:34:35;9.47;;;5.43;;
11671;SDS011;5892;43.412;24.612;2023-03-14T05:37:02;11.53;;;4.97;;
11671;SDS011;5892;43.412;24.612;2023-03-14T05:39:30;11.13;;;4.63;;
11671;SDS011;5892;43.412;24.612;2023-03-14T05:42:00;14.53;;;5.27;;
11671;SDS011;5892;43.412;24.612;2023-03-14T05:44:27;12.70;;;5.77;;
11671;SDS011;5892;43.412;24.612;2023-03-14T05:46:55;12.83;;;6.17;;
11671;SDS011;5892;43.412;24.612;2023-03-14T05:49:26;23.80;;;7.73;;
11671;SDS011;5892;43.412;24.612;2023-03-14T05:51:53;14.33;;;6.50;;
11671;SDS011;5892;43.412;24.612;2023-03-14T05:54:21;15.33;;;6.70;;
11671;SDS011;5892;43.412;24.612;2023-03-14T05:56:48;14.80;;;6.73;;
11671;SDS011;5892;43.412;24.612;2023-03-14T05:59:25;19.60;;;7.87;;
11671;SDS011;5892;43.412;24.612;2023-03-14T06:01:52;23.30;;;10.10;;
11671;SDS011;5892;43.412;24.612;2023-03-14T06:04:20;27.43;;;12.67;;
11671;SDS011;5892;43.412;24.612;2023-03-14T06:06:47;32.20;;;13.53;;
11671;SDS011;5892;43.412;24.612;2023-03-14T06:09:14;25.33;;;14.80;;
11671;SDS011;5892;43.412;24.612;2023-03-14T06:11:45;31.43;;;14.40;;
11671;SDS011;5892;43.412;24.612;2023-03-14T06:14:12;17.90;;;11.13;;
11671;SDS011;5892;43.412;24.612;2023-03-14T06:16:41;28.10;;;15.07;;
11671;SDS011;5892;43.412;24.612;2023-03-14T06:19:08;27.23;;;13.93;;
11671;SDS011;5892;43.412;24.612;2023-03-14T06:21:36;21.80;;;13.00;;
11671;SDS011;5892;43.412;24.612;2023-03-14T06:24:03;24.43;;;12.37;;
11671;SDS011;5892;43.412;24.612;2023-03-14T06:26:31;22.90;;;11.77;;
11671;SDS011;5892;43.412;24.612;2023-03-14T06:28:59;18.63;;;11.67;;
11671;SDS011;5892;43.412;24.612;2023-03-14T06:31:29;21.17;;;11.20;;
11671;SDS011;5892;43.412;24.612;2023-03-14T06:33:58;19.37;;;10.93;;
11671;SDS011;5892;43.412;24.612;2023-03-14T06:36:26;19.17;;;11.47;;
11671;SDS011;5892;43.412;24.612;2023-03-14T06:38:53;20.67;;;11.20;;
11671;SDS011;5892;43.412;24.612;2023-03-14T06:41:20;23.23;;;10.50;;
11671;SDS011;5892;43.412;24.612;2023-03-14T06:43:55;24.03;;;10.83;;
11671;SDS011;5892;43.412;24.612;2023-03-14T06:46:22;17.23;;;10.67;;
11671;SDS011;5892;43.412;24.612;2023-03-14T06:48:50;18.17;;;10.77;;
11671;SDS011;5892;43.412;24.612;2023-03-14T06:51:28;16.30;;;10.13;;
11671;SDS011;5892;43.412;24.612;2023-03-14T06:53:55;19.97;;;11.63;;
11671;SDS011;5892;43.412;24.612;2023-03-14T06:56:23;18.43;;;11.33;;
11671;SDS011;5892;43.412;24.612;2023-03-14T06:58:51;21.30;;;11.40;;
11671;SDS011;5892;43.412;24.612;2023-03-14T07:01:20;16.53;;;10.60;;
11671;SDS011;5892;43.412;24.612;2023-03-14T07:03:49;15.87;;;11.57;;
11671;SDS011;5892;43.412;24.612;2023-03-14T07:06:17;18.30;;;11.70;;
11671;SDS011;5892;43.412;24.612;2023-03-14T07:08:47;22.13;;;11.40;;
11671;SDS011;5892;43.412;24.612;2023-03-14T07:11:15;19.23;;;11.63;;
11671;SDS011;5892;43.412;24.612;2023-03-14T07:13:42;20.50;;;11.87;;
11671;SDS011;5892;43.412;24.612;2023-03-14T07:16:10;23.40;;;12.20;;
11671;SDS011;5892;43.412;24.612;2023-03-14T07:18:37;16.73;;;11.40;;
11671;SDS011;5892;43.412;24.612;2023-03-14T07:21:05;13.40;;;10.33;;
11671;SDS011;5892;43.412;24.612;2023-03-14T07:23:34;16.03;;;10.70;;
11671;SDS011;5892;43.412;24.612;2023-03-14T07:26:03;15.83;;;10.40;;
11671;SDS011;5892;43.412;24.612;2023-03-14T07:28:30;15.30;;;10.10;;
11671;SDS011;5892;43.412;24.612;2023-03-14T07:30:57;14.20;;;10.70;;
11671;SDS011;5892;43.412;24.612;2023-03-14T07:33:25;22.33;;;10.60;;
11671;SDS011;5892;43.412;24.612;2023-03-14T07:35:52;15.40;;;10.47;;
11671;SDS011;5892;43.412;24.612;2023-03-14T07:38:20;17.30;;;9.27;;
11671;SDS011;5892;43.412;24.612;2023-03-14T07:40:48;21.87;;;9.17;;
11671;SDS011;5892;43.412;24.612;2023-03-14T07:43:17;9.80;;;8.43;;
11671;SDS011;5892;43.412;24.612;2023-03-14T07:45:45;13.17;;;9.07;;
11671;SDS011;5892;43.412;24.612;2023-03-14T07:48:12;9.80;;;8.03;;
11671;SDS011;5892;43.412;24.612;2023-03-14T07:50:39;9.10;;;7.80;;
11671;SDS011;5892;43.412;24.612;2023-03-14T07:53:07;11.87;;;8.73;;
11671;SDS011;5892;43.412;24.612;2023-03-14T07:55:33;8.07;;;6.67;;
11671;SDS011;5892;43.412;24.612;2023-03-14T07:58:00;10.23;;;5.90;;
11671;SDS011;5892;43.412;24.612;2023-03-14T08:00:30;14.27;;;7.47;;
11671;SDS011;5892;43.412;24.612;2023-03-14T08:02:58;10.87;;;7.00;;
11671;SDS011;5892;43.412;24.612;2023-03-14T08:05:25;15.70;;;8.47;;
11671;SDS011;5892;43.412;24.612;2023-03-14T08:07:53;12.27;;;7.50;;
11671;SDS011;5892;43.412;24.612;2023-03-14T08:10:20;13.47;;;7.47;;
11671;SDS011;5892;43.412;24.612;2023-03-14T08:12:48;11.83;;;7.47;;
11671;SDS011;5892;43.412;24.612;2023-03-14T08:15:15;12.10;;;7.53;;
11671;SDS011;5892;43.412;24.612;2023-03-14T08:17:47;9.77;;;6.97;;
11671;SDS011;5892;43.412;24.612;2023-03-14T08:20:16;9.33;;;6.27;;
11671;SDS011;5892;43.412;24.612;2023-03-14T08:22:43;7.90;;;6.70;;
11671;SDS011;5892;43.412;24.612;2023-03-14T08:25:10;7.33;;;6.53;;
11671;SDS011;5892;43.412;24.612;2023-03-14T08:27:37;10.77;;;6.37;;
11671;SDS011;5892;43.412;24.612;2023-03-14T08:30:07;12.33;;;6.73;;
11671;SDS011;5892;43.412;24.612;2023-03-14T08:32:35;8.97;;;5.70;;
11671;SDS011;5892;43.412;24.612;2023-03-14T08:35:05;9.13;;;6.63;;
11671;SDS011;5892;43.412;24.612;2023-03-14T08:37:33;11.60;;;7.63;;
11671;SDS011;5892;43.412;24.612;2023-03-14T08:40:00;10.47;;;6.40;;
11671;SDS011;5892;43.412;24.612;2023-03-14T08:42:31;9.07;;;6.40;;
11671;SDS011;5892;43.412;24.612;2023-03-14T08:45:13;8.67;;;6.27;;
11671;SDS011;5892;43.412;24.612;2023-03-14T08:47:59;10.93;;;6.70;;
11671;SDS011;5892;43.412;24.612;2023-03-14T08:50:28;11.47;;;6.10;;
11671;SDS011;5892;43.412;24.612;2023-03-14T08:52:55;9.57;;;6.50;;
11671;SDS011;5892;43.412;24.612;2023-03-14T08:55:25;10.50;;;6.70;;
11671;SDS011;5892;43.412;24.612;2023-03-14T08:57:52;7.73;;;6.20;;
11671;SDS011;5892;43.412;24.612;2023-03-14T09:00:19;7.17;;;6.23;;
11671;SDS011;5892;43.412;24.612;2023-03-14T09:02:47;9.07;;;6.90;;
11671;SDS011;5892;43.412;24.612;2023-03-14T09:05:14;12.27;;;6.83;;
11671;SDS011;5892;43.412;24.612;2023-03-14T09:07:43;8.20;;;7.00;;
11671;SDS011;5892;43.412;24.612;2023-03-14T09:10:10;11.90;;;7.00;;
11671;SDS011;5892;43.412;24.612;2023-03-14T09:12:37;10.63;;;6.53;;
11671;SDS011;5892;43.412;24.612;2023-03-14T09:15:05;12.93;;;6.47;;
11671;SDS011;5892;43.412;24.612;2023-03-14T09:17:33;9.30;;;5.60;;
11671;SDS011;5892;43.412;24.612;2023-03-14T09:20:00;9.30;;;5.93;;
11671;SDS011;5892;43.412;24.612;2023-03-14T09:22:30;8.57;;;6.20;;
11671;SDS011;5892;43.412;24.612;2023-03-14T09:25:06;10.33;;;6.00;;
11671;SDS011;5892;43.412;24.612;2023-03-14T09:27:49;9.03;;;5.17;;
11671;SDS011;5892;43.412;24.612;2023-03-14T09:30:16;7.87;;;4.80;;
11671;SDS011;5892;43.412;24.612;2023-03-14T09:32:45;6.43;;;4.40;;
11671;SDS011;5892;43.412;24.612;2023-03-14T09:35:12;8.73;;;3.57;;
11671;SDS011;5892;43.412;24.612;2023-03-14T09:37:40;5.57;;;2.80;;
11671;SDS011;5892;43.412;24.612;2023-03-14T09:40:12;4.50;;;3.10;;
11671;SDS011;5892;43.412;24.612;2023-03-14T09:42:41;5.93;;;2.77;;
11671;SDS011;5892;43.412;24.612;2023-03-14T09:45:11;3.83;;;2.60;;
11671;SDS011;5892;43.412;24.612;2023-03-14T09:47:41;5.00;;;2.90;;
11671;SDS011;5892;43.412;24.612;2023-03-14T09:50:10;3.00;;;2.70;;
11671;SDS011;5892;43.412;24.612;2023-03-14T09:52:41;2.50;;;2.17;;
11671;SDS011;5892;43.412;24.612;2023-03-14T09:55:14;4.07;;;2.20;;
11671;SDS011;5892;43.412;24.612;2023-03-14T09:57:44;3.10;;;2.60;;
11671;SDS011;5892;43.412;24.612;2023-03-14T10:00:14;3.27;;;2.30;;
11671;SDS011;5892;43.412;24.612;2023-03-14T10:03:13;3.57;;;2.40;;
11671;SDS011;5892;43.412;24.612;2023-03-14T10:05:47;3.53;;;2.40;;
11671;SDS011;5892;43.412;24.612;2023-03-14T10:08:15;3.90;;;2.57;;
11671;SDS011;5892;43.412;24.612;2023-03-14T10:10:43;4.97;;;2.40;;
11671;SDS011;5892;43.412;24.612;2023-03-14T10:13:14;3.70;;;2.30;;
11671;SDS011;5892;43.412;24.612;2023-03-14T10:15:46;6.40;;;2.90;;
11671;SDS011;5892;43.412;24.612;2023-03-14T10:18:33;2.77;;;1.80;;
11671;SDS011;5892;43.412;24.612;2023-03-14T10:21:02;2.17;;;1.80;;
11671;SDS011;5892;43.412;24.612;2023-03-14T10:23:32;1.97;;;1.77;;
11671;SDS011;5892;43.412;24.612;2023-03-14T10:26:07;2.73;;;2.10;;
11671;SDS011;5892;43.412;24.612;2023-03-14T10:28:39;2.30;;;2.10;;
11671;SDS011;5892;43.412;24.612;2023-03-14T10:31:09;4.33;;;1.93;;
11671;SDS011;5892;43.412;24.612;2023-03-14T10:33:37;2.30;;;1.70;;
11671;SDS011;5892;43.412;24.612;2023-03-14T10:36:05;2.60;;;1.73;;
11671;SDS011;5892;43.412;24.612;2023-03-14T10:39:15;2.27;;;1.60;;
11671;SDS011;5892;43.412;24.612;2023-03-14T10:42:19;1.70;;;1.60;;
11671;SDS011;5892;43.412;24.612;2023-03-14T10:44:49;3.00;;;1.93;;
11671;SDS011;5892;43.412;24.612;2023-03-14T10:47:22;1.63;;;1.47;;
11671;SDS011;5892;43.412;24.612;2023-03-14T10:49:50;1.90;;;1.70;;
11671;SDS011;5892;43.412;24.612;2023-03-14T10:52:20;2.30;;;1.80;;
11671;SDS011;5892;43.412;24.612;2023-03-14T10:54:54;1.90;;;1.70;;
11671;SDS011;5892;43.412;24.612;2023-03-14T10:57:26;3.37;;;1.90;;
11671;SDS011;5892;43.412;24.612;2023-03-14T10:59:55;2.90;;;2.10;;
11671;SDS011;5892;43.412;24.612;2023-03-14T11:02:30;2.93;;;1.70;;
11671;SDS011;5892;43.412;24.612;2023-03-14T11:05:17;1.50;;;1.40;;
11671;SDS011;5892;43.412;24.612;2023-03-14T11:07:51;4.40;;;2.77;;
11671;SDS011;5892;43.412;24.612;2023-03-14T11:10:23;2.60;;;1.90;;
11671;SDS011;5892;43.412;24.612;2023-03-14T11:13:04;4.77;;;2.47;;
11671;SDS011;5892;43.412;24.612;2023-03-14T11:15:46;1.90;;;1.67;;
11671;SDS011;5892;43.412;24.612;2023-03-14T11:21:26;2.90;;;1.50;;
11671;SDS011;5892;43.412;24.612;2023-03-14T11:24:13;2.00;;;1.40;;
11671;SDS011;5892;43.412;24.612;2023-03-14T11:26:52;1.70;;;1.30;;
11671;SDS011;5892;43.412;24.612;2023-03-14T11:29:31;2.13;;;1.53;;
11671;SDS011;5892;43.412;24.612;2023-03-14T11:32:09;3.23;;;1.50;;
11671;SDS011;5892;43.412;24.612;2023-03-14T11:34:41;3.80;;;1.67;;
11671;SDS011;5892;43.412;24.612;2023-03-14T11:37:17;1.90;;;1.70;;
11671;SDS011;5892;43.412;24.612;2023-03-14T11:39:52;1.57;;;1.47;;
11671;SDS011;5892;43.412;24.612;2023-03-14T11:42:27;4.37;;;1.87;;
11671;SDS011;5892;43.412;24.612;2023-03-14T11:44:59;2.67;;;1.63;;
11671;SDS011;5892;43.412;24.612;2023-03-14T11:47:29;2.23;;;1.40;;
11671;SDS011;5892;43.412;24.612;2023-03-14T11:50:00;2.40;;;1.87;;
11671;SDS011;5892;43.412;24.612;2023-03-14T11:55:29;1.70;;;1.60;;
11671;SDS011;5892;43.412;24.612;2023-03-14T11:58:00;4.17;;;1.73;;
11671;SDS011;5892;43.412;24.612;2023-03-14T12:00:36;3.90;;;1.70;;
11671;SDS011;5892;43.412;24.612;2023-03-14T12:03:09;4.00;;;1.60;;
11671;SDS011;5892;43.412;24.612;2023-03-14T12:05:46;7.17;;;1.87;;
11671;SDS011;5892;43.412;24.612;2023-03-14T12:08:29;5.20;;;1.80;;
11671;SDS011;5892;43.412;24.612;2023-03-14T12:11:30;2.83;;;1.40;;
11671;SDS011;5892;43.412;24.612;2023-03-14T12:14:01;3.53;;;1.57;;
11671;SDS011;5892;43.412;24.612;2023-03-14T12:16:35;1.70;;;1.50;;
11671;SDS011;5892;43.412;24.612;2023-03-14T12:22:17;2.33;;;1.80;;
11671;SDS011;5892;43.412;24.612;2023-03-14T12:24:53;3.93;;;2.47;;
11671;SDS011;5892;43.412;24.612;2023-03-14T12:30:42;2.17;;;1.40;;
11671;SDS011;5892;43.412;24.612;2023-03-14T12:36:01;2.87;;;2.30;;
11671;SDS011;5892;43.412;24.612;2023-03-14T12:38:47;3.43;;;2.10;;
11671;SDS011;5892;43.412;24.612;2023-03-14T12:41:24;1.53;;;1.40;;
11671;SDS011;5892;43.412;24.612;2023-03-14T12:43:56;3.80;;;2.50;;
11671;SDS011;5892;43.412;24.612;2023-03-14T12:46:24;1.67;;;1.40;;
11671;SDS011;5892;43.412;24.612;2023-03-14T12:48:56;1.53;;;1.30;;
11671;SDS011;5892;43.412;24.612;2023-03-14T12:51:54;3.93;;;1.40;;
11671;SDS011;5892;43.412;24.612;2023-03-14T12:54:27;1.47;;;1.20;;
11671;SDS011;5892;43.412;24.612;2023-03-14T12:57:09;1.77;;;1.40;;
11671;SDS011;5892;43.412;24.612;2023-03-14T12:59:47;4.20;;;1.30;;
11671;SDS011;5892;43.412;24.612;2023-03-14T13:02:20;1.60;;;1.20;;
11671;SDS011;5892;43.412;24.612;2023-03-14T13:04:53;3.43;;;1.73;;
11671;SDS011;5892;43.412;24.612;2023-03-14T13:07:32;1.83;;;1.67;;
11671;SDS011;5892;43.412;24.612;2023-03-14T13:10:05;4.80;;;1.40;;
11671;SDS011;5892;43.412;24.612;2023-03-14T13:12:46;4.00;;;1.87;;
11671;SDS011;5892;43.412;24.612;2023-03-14T13:15:21;2.47;;;1.67;;
11671;SDS011;5892;43.412;24.612;2023-03-14T13:18:09;2.43;;;1.60;;
11671;SDS011;5892;43.412;24.612;2023-03-14T13:20:44;1.93;;;1.57;;
11671;SDS011;5892;43.412;24.612;2023-03-14T13:23:22;8.73;;;4.17;;
11671;SDS011;5892;43.412;24.612;2023-03-14T13:25:50;3.03;;;1.60;;
11671;SDS011;5892;43.412;24.612;2023-03-14T13:28:17;2.73;;;1.60;;
11671;SDS011;5892;43.412;24.612;2023-03-14T13:30:48;1.50;;;1.33;;
11671;SDS011;5892;43.412;24.612;2023-03-14T13:33:17;2.67;;;1.40;;
11671;SDS011;5892;43.412;24.612;2023-03-14T13:35:49;7.43;;;1.80;;
11671;SDS011;5892;43.412;24.612;2023-03-14T13:38:21;4.60;;;1.70;;
11671;SDS011;5892;43.412;24.612;2023-03-14T13:40:50;2.43;;;1.40;;
11671;SDS011;5892;43.412;24.612;2023-03-14T13:43:18;1.53;;;1.30;;
11671;SDS011;5892;43.412;24.612;2023-03-14T13:45:50;1.90;;;1.33;;
11671;SDS011;5892;43.412;24.612;2023-03-14T13:48:20;2.33;;;1.57;;
11671;SDS011;5892;43.412;24.612;2023-03-14T13:50:51;3.57;;;1.50;;
11671;SDS011;5892;43.412;24.612;2023-03-14T13:53:21;1.63;;;1.40;;
11671;SDS011;5892;43.412;24.612;2023-03-14T13:55:49;2.83;;;1.60;;
11671;SDS011;5892;43.412;24.612;2023-03-14T13:58:21;3.33;;;1.60;;
11671;SDS011;5892;43.412;24.612;2023-03-14T14:00:59;4.63;;;1.30;;
11671;SDS011;5892;43.412;24.612;2023-03-14T14:03:30;1.60;;;1.30;;
11671;SDS011;5892;43.412;24.612;2023-03-14T14:06:00;4.50;;;1.43;;
11671;SDS011;5892;43.412;24.612;2023-03-14T14:08:27;2.00;;;1.40;;
11671;SDS011;5892;43.412;24.612;2023-03-14T14:10:58;2.23;;;1.40;;
11671;SDS011;5892;43.412;24.612;2023-03-14T14:13:29;1.90;;;1.23;;
11671;SDS011;5892;43.412;24.612;2023-03-14T14:16:00;1.70;;;1.33;;
11671;SDS011;5892;43.412;24.612;2023-03-14T14:18:28;2.47;;;1.47;;
11671;SDS011;5892;43.412;24.612;2023-03-14T14:20:57;1.30;;;1.20;;
11671;SDS011;5892;43.412;24.612;2023-03-14T14:23:27;1.93;;;1.30;;
11671;SDS011;5892;43.412;24.612;2023-03-14T14:25:56;2.70;;;1.30;;
11671;SDS011;5892;43.412;24.612;2023-03-14T14:28:26;1.90;;;1.37;;
11671;SDS011;5892;43.412;24.612;2023-03-14T14:31:02;4.67;;;1.87;;
11671;SDS011;5892;43.412;24.612;2023-03-14T14:33:54;3.70;;;1.63;;
11671;SDS011;5892;43.412;24.612;2023-03-14T14:36:25;2.63;;;1.33;;
11671;SDS011;5892;43.412;24.612;2023-03-14T14:38:57;1.90;;;1.50;;
11671;SDS011;5892;43.412;24.612;2023-03-14T14:41:29;3.07;;;1.60;;
11671;SDS011;5892;43.412;24.612;2023-03-14T14:43:57;2.17;;;1.10;;
11671;SDS011;5892;43.412;24.612;2023-03-14T14:46:26;1.90;;;1.60;;
11671;SDS011;5892;43.412;24.612;2023-03-14T14:48:56;3.90;;;1.50;;
11671;SDS011;5892;43.412;24.612;2023-03-14T14:51:33;1.73;;;1.50;;
11671;SDS011;5892;43.412;24.612;2023-03-14T14:54:12;2.70;;;1.73;;
11671;SDS011;5892;43.412;24.612;2023-03-14T14:56:45;2.57;;;1.50;;
11671;SDS011;5892;43.412;24.612;2023-03-14T14:59:23;3.47;;;1.70;;
11671;SDS011;5892;43.412;24.612;2023-03-14T15:01:55;3.27;;;1.90;;
11671;SDS011;5892;43.412;24.612;2023-03-14T15:04:24;3.70;;;1.83;;
11671;SDS011;5892;43.412;24.612;2023-03-14T15:06:53;2.43;;;1.77;;
11671;SDS011;5892;43.412;24.612;2023-03-14T15:09:20;3.73;;;1.90;;
11671;SDS011;5892;43.412;24.612;2023-03-14T15:11:47;2.50;;;1.90;;
11671;SDS011;5892;43.412;24.612;2023-03-14T15:14:15;2.60;;;1.87;;
11671;SDS011;5892;43.412;24.612;2023-03-14T15:16:42;2.17;;;1.50;;
11671;SDS011;5892;43.412;24.612;2023-03-14T15:19:10;2.57;;;1.67;;
11671;SDS011;5892;43.412;24.612;2023-03-14T15:21:40;3.17;;;1.60;;
11671;SDS011;5892;43.412;24.612;2023-03-14T15:24:10;4.40;;;2.00;;
11671;SDS011;5892;43.412;24.612;2023-03-14T15:26:37;2.23;;;1.80;;
11671;SDS011;5892;43.412;24.612;2023-03-14T15:32:09;5.37;;;2.00;;
11671;SDS011;5892;43.412;24.612;2023-03-14T15:34:38;9.47;;;2.97;;
11671;SDS011;5892;43.412;24.612;2023-03-14T15:37:08;5.30;;;2.13;;
11671;SDS011;5892;43.412;24.612;2023-03-14T15:39:39;5.40;;;2.00;;
11671;SDS011;5892;43.412;24.612;2023-03-14T15:42:06;7.27;;;2.23;;